Terminal Aerodrome Forecast
Issued by NWS Paducah, KY

Home | Current Version | Previous Version | Text Only | Print | Product List | Glossary On
Versions: 1 2 3 4 5 6 7 8 9 10 11 12
000
FTUS43 KPAH 131720
TAFEVV
TAF
KEVV 131720Z 1318/1418 21019G32KT P6SM SCT250
     FM132200 25012G19KT P6SM SCT060
     FM140200 29011KT P6SM BKN025
     FM141000 34006KT P6SM SCT025 BKN250=

USA.gov is the U.S. government's official web portal to all federal, state and local government web resources and services.